Time;durP1;ratioP1;P1;durP2;ratioP2;P2;SDS_P1;SDS_P2;PMS_P1;PMS_P2;Temp;Humidity;BMP_temperature;BMP_pressure;BME280_temperature;BME280_humidity;BME280_pressure;Samples;Min_cycle;Max_cycle;Signal;HPM_P1;HPM_P2
2021/09/23 00:00:17;;;;;;;49.40;30.25;;;15.20;95.20;;;;;;5049844;28;20183;-73
2021/09/23 00:05:09;;;;;;;49.30;30.08;;;15.20;95.30;;;;;;5067640;28;20973;-74
2021/09/23 00:07:35;;;;;;;53.97;31.52;;;15.20;95.30;;;;;;5068682;28;20239;-74
2021/09/23 00:10:00;;;;;;;48.17;30.73;;;15.20;95.40;;;;;;5066437;28;20190;-73
2021/09/23 00:12:26;;;;;;;52.10;31.02;;;15.20;95.40;;;;;;5056708;28;20193;-71
2021/09/23 00:14:51;;;;;;;49.70;31.00;;;15.20;95.50;;;;;;5076954;28;20658;-74
2021/09/23 00:17:17;;;;;;;46.78;29.80;;;15.10;95.50;;;;;;5071146;28;20182;-73
2021/09/23 00:19:43;;;;;;;48.67;29.80;;;15.10;95.60;;;;;;5072865;28;20186;-73
2021/09/23 00:22:09;;;;;;;49.50;29.83;;;15.10;95.60;;;;;;5057725;28;20766;-73
2021/09/23 00:24:34;;;;;;;49.03;29.90;;;15.10;95.70;;;;;;5070715;28;20269;-73
2021/09/23 00:27:00;;;;;;;49.40;30.00;;;15.10;95.70;;;;;;5072681;28;20228;-72
2021/09/23 00:29:26;;;;;;;50.67;30.38;;;15.10;95.80;;;;;;5072548;28;20183;-72
2021/09/23 00:31:51;;;;;;;49.63;30.10;;;15.10;95.80;;;;;;5072091;28;20182;-72
2021/09/23 00:34:17;;;;;;;49.28;30.88;;;15.10;95.90;;;;;;5069514;28;20680;-70
2021/09/23 00:36:43;;;;;;;50.67;30.92;;;15.10;95.90;;;;;;5053934;28;20181;-72
2021/09/23 00:39:08;;;;;;;52.78;30.17;;;15.10;96.00;;;;;;5057728;28;20182;-71
2021/09/23 00:41:34;;;;;;;46.97;28.95;;;15.10;96.00;;;;;;5051371;28;20183;-72
2021/09/23 00:44:13;;;;;;;48.83;29.90;;;15.00;96.10;;;;;;5072416;28;20189;-71
2021/09/23 00:46:39;;;;;;;48.75;30.02;;;15.00;96.20;;;;;;5055855;28;20194;-71
2021/09/23 00:49:05;;;;;;;47.67;30.02;;;15.00;96.20;;;;;;5054069;28;20187;-72
2021/09/23 00:51:30;;;;;;;49.67;30.75;;;15.00;96.30;;;;;;5050756;28;20619;-71
2021/09/23 00:53:57;;;;;;;47.65;29.65;;;15.00;96.30;;;;;;5070496;28;20209;-72
2021/09/23 00:56:23;;;;;;;54.70;29.83;;;15.00;96.40;;;;;;5051581;28;20179;-73
2021/09/23 00:58:49;;;;;;;51.17;30.80;;;15.00;96.50;;;;;;5053997;28;20532;-71
2021/09/23 01:01:15;;;;;;;51.75;30.77;;;15.00;96.60;;;;;;5053660;28;20584;-71
2021/09/23 01:03:41;;;;;;;59.30;31.58;;;15.00;96.60;;;;;;5050487;28;20618;-71
2021/09/23 01:06:07;;;;;;;53.95;32.15;;;15.00;97.00;;;;;;5037604;28;20198;-71
2021/09/23 01:08:37;;;;;;;54.72;31.20;;;15.00;96.70;;;;;;5050764;28;20980;-72
2021/09/23 01:11:03;;;;;;;52.70;29.75;;;15.00;96.80;;;;;;5071541;28;20240;-73
2021/09/23 01:13:32;;;;;;;49.28;31.13;;;15.00;96.80;;;;;;5052064;28;20213;-71
2021/09/23 01:16:12;;;;;;;52.70;32.30;;;15.00;96.90;;;;;;5052755;28;20178;-73
2021/09/23 01:19:02;;;;;;;52.75;31.00;;;15.00;97.00;;;;;;5051603;28;20975;-73
2021/09/23 01:21:31;;;;;;;53.67;32.30;;;15.00;97.10;;;;;;5051696;28;20252;-73
2021/09/23 01:23:58;;;;;;;54.08;31.67;;;15.00;97.10;;;;;;5056761;28;20293;-72
2021/09/23 01:26:29;;;;;;;57.13;32.88;;;15.10;97.30;;;;;;5052867;28;20273;-72
2021/09/23 01:28:57;;;;;;;55.33;32.60;;;15.10;97.40;;;;;;5057335;28;20186;-71
2021/09/23 01:31:26;;;;;;;55.60;34.00;;;15.20;97.60;;;;;;5084997;28;20186;-74
2021/09/23 01:33:52;;;;;;;61.47;34.35;;;15.20;97.70;;;;;;5050509;28;20217;-73
2021/09/23 01:36:19;;;;;;;57.83;34.13;;;15.30;97.80;;;;;;5050927;28;20182;-74
2021/09/23 01:38:51;;;;;;;59.22;33.30;;;15.20;97.90;;;;;;5050856;28;20280;-71
2021/09/23 01:41:16;;;;;;;59.00;33.15;;;15.30;98.40;;;;;;5050309;28;20197;-71
2021/09/23 01:43:42;;;;;;;65.80;35.47;;;15.30;98.60;;;;;;5050177;28;20190;-71
2021/09/23 01:46:08;;;;;;;58.97;34.95;;;15.40;98.60;;;;;;5049698;28;20182;-72
2021/09/23 01:48:42;;;;;;;57.00;33.90;;;15.40;98.90;;;;;;5051591;28;20190;-71
2021/09/23 01:51:08;;;;;;;59.53;33.65;;;15.40;99.00;;;;;;5069522;28;20200;-71
2021/09/23 01:53:34;;;;;;;57.80;34.42;;;15.50;99.10;;;;;;5050156;28;20202;-72
2021/09/23 01:56:00;;;;;;;59.05;34.03;;;15.50;99.20;;;;;;5050095;28;20182;-71
2021/09/23 01:58:26;;;;;;;60.78;34.35;;;15.50;99.60;;;;;;5049989;28;20178;-72
2021/09/23 02:00:52;;;;;;;57.00;35.35;;;15.60;99.60;;;;;;5050813;28;20190;-73
2021/09/23 02:03:18;;;;;;;60.90;34.92;;;15.60;99.80;;;;;;5049925;28;20223;-72
2021/09/23 02:06:10;;;;;;;59.80;35.15;;;15.70;99.90;;;;;;5052524;28;20229;-72
2021/09/23 02:08:37;;;;;;;59.38;33.28;;;15.70;99.90;;;;;;5050806;28;20227;-70
2021/09/23 02:11:05;;;;;;;66.90;34.35;;;15.70;99.90;;;;;;5050812;28;20185;-70
2021/09/23 02:13:37;;;;;;;67.95;34.65;;;15.80;99.90;;;;;;5053443;28;20237;-71
2021/09/23 02:16:05;;;;;;;57.22;33.22;;;15.90;99.90;;;;;;5049454;28;20193;-73
2021/09/23 02:18:31;;;;;;;67.72;34.40;;;15.90;99.90;;;;;;5054025;28;20190;-73
2021/09/23 02:20:57;;;;;;;60.60;35.50;;;15.90;99.90;;;;;;5049584;28;20649;-71
2021/09/23 02:23:24;;;;;;;65.93;35.75;;;16.00;99.90;;;;;;5057221;28;20229;-73
2021/09/23 02:25:49;;;;;;;63.40;34.10;;;16.00;99.90;;;;;;5051813;28;20186;-73
2021/09/23 02:28:15;;;;;;;61.22;34.38;;;16.00;99.90;;;;;;5052133;28;20202;-73
2021/09/23 02:30:41;;;;;;;67.32;37.00;;;16.10;99.90;;;;;;5052290;28;20245;-71
2021/09/23 02:33:07;;;;;;;61.47;33.22;;;16.10;99.90;;;;;;5046875;28;20210;-73
2021/09/23 02:35:33;;;;;;;61.80;33.22;;;16.10;99.90;;;;;;5052383;28;20185;-74
2021/09/23 02:37:58;;;;;;;68.65;34.85;;;16.10;99.90;;;;;;5085428;28;20190;-72
2021/09/23 02:40:24;;;;;;;61.70;34.67;;;16.10;99.90;;;;;;5049131;28;20216;-73
2021/09/23 02:42:50;;;;;;;66.32;35.63;;;16.20;99.90;;;;;;5048912;28;20182;-73
2021/09/23 02:45:16;;;;;;;61.58;34.47;;;16.20;99.90;;;;;;5050680;28;20548;-73
2021/09/23 02:47:42;;;;;;;63.65;34.78;;;16.20;99.90;;;;;;5055405;28;20169;-73
2021/09/23 02:50:08;;;;;;;;;;;16.30;99.90;;;;;;5052343;28;20241;-74
2021/09/23 02:52:33;;;;;;;65.22;32.25;;;16.30;99.90;;;;;;5051419;28;20178;-72
2021/09/23 02:54:59;;;;;;;55.13;31.80;;;16.30;99.90;;;;;;5082277;28;20957;-73
2021/09/23 02:57:25;;;;;;;58.10;32.45;;;16.30;99.90;;;;;;5049181;28;20194;-71
2021/09/23 02:59:51;;;;;;;50.20;29.02;;;16.40;99.90;;;;;;5050699;28;20666;-74
2021/09/23 03:02:17;;;;;;;44.58;24.33;;;16.40;99.90;;;;;;5049218;28;20719;-71
2021/09/23 03:04:42;;;;;;;42.63;22.08;;;16.40;99.90;;;;;;5083153;28;20281;-71
2021/09/23 03:07:08;;;;;;;42.22;20.55;;;16.50;99.90;;;;;;5051173;28;20302;-73
2021/09/23 03:09:34;;;;;;;32.97;17.90;;;16.60;99.90;;;;;;5049996;28;20303;-73
2021/09/23 03:11:59;;;;;;;39.00;17.92;;;16.60;99.90;;;;;;5048604;28;20304;-71
2021/09/23 03:14:25;;;;;;;28.50;15.98;;;16.70;99.90;;;;;;5048359;28;20214;-71
2021/09/23 03:16:51;;;;;;;38.25;16.67;;;16.80;99.90;;;;;;5048477;28;20187;-71
2021/09/23 03:19:16;;;;;;;28.38;15.27;;;16.90;99.90;;;;;;5032077;28;20174;-73
2021/09/23 03:21:42;;;;;;;29.63;15.30;;;16.90;99.90;;;;;;5066277;28;20225;-71
2021/09/23 03:24:09;;;;;;;28.58;15.02;;;17.00;99.90;;;;;;5045176;28;20197;-72
2021/09/23 03:26:36;;;;;;;37.83;14.82;;;17.10;99.90;;;;;;5042173;28;20240;-73
2021/09/23 03:29:05;;;;;;;28.55;13.70;;;17.10;99.90;;;;;;5025323;28;20195;-73
2021/09/23 03:31:33;;;;;;;38.83;14.07;;;17.10;99.90;;;;;;5043291;28;20249;-72
2021/09/23 03:33:58;;;;;;;31.60;13.50;;;17.20;99.90;;;;;;5075594;28;20202;-69
2021/09/23 03:36:24;;;;;;;31.25;14.13;;;17.20;99.90;;;;;;5044556;28;20244;-70
2021/09/23 03:38:53;;;;;;;39.25;13.90;;;17.20;99.90;;;;;;5060504;28;20190;-73
2021/09/23 03:41:19;;;;;;;27.58;13.93;;;17.20;99.90;;;;;;5044684;28;20187;-72
2021/09/23 03:43:45;;;;;;;33.75;14.68;;;17.20;99.90;;;;;;5077214;28;20190;-72
2021/09/23 03:46:11;;;;;;;32.28;14.43;;;17.20;99.90;;;;;;5042475;28;20263;-72
2021/09/23 03:48:36;;;;;;;27.23;14.18;;;17.20;99.90;;;;;;5042425;28;20370;-72
2021/09/23 03:51:03;;;;;;;33.28;14.52;;;17.20;99.90;;;;;;5044902;28;20187;-72
2021/09/23 03:53:29;;;;;;;26.80;14.20;;;17.20;99.90;;;;;;5042880;28;20579;-69
2021/09/23 03:55:55;;;;;;;28.95;13.98;;;17.20;99.90;;;;;;5043916;28;20575;-73
2021/09/23 03:58:20;;;;;;;25.88;13.88;;;17.10;99.90;;;;;;5026840;28;20194;-73
2021/09/23 04:00:46;;;;;;;26.52;14.00;;;17.20;99.90;;;;;;5041367;28;20683;-72
2021/09/23 04:03:12;;;;;;;26.50;13.73;;;17.10;99.90;;;;;;5027430;28;20191;-71
2021/09/23 04:05:37;;;;;;;24.40;12.95;;;17.10;99.90;;;;;;5043210;28;20533;-74
2021/09/23 04:08:04;;;;;;;27.50;12.68;;;17.10;99.90;;;;;;5025223;28;20210;-74
2021/09/23 04:10:30;;;;;;;26.85;12.80;;;17.10;99.90;;;;;;5043488;28;20190;-73
2021/09/23 04:12:57;;;;;;;26.88;13.52;;;17.10;99.90;;;;;;5075606;28;20183;-73
2021/09/23 04:15:23;;;;;;;29.40;13.27;;;17.10;99.90;;;;;;5043190;28;20596;-73
2021/09/23 04:17:50;;;;;;;29.25;13.05;;;17.10;99.90;;;;;;5044584;28;20187;-71
2021/09/23 04:20:16;;;;;;;38.30;12.85;;;17.10;99.90;;;;;;5077123;28;20189;-71
2021/09/23 04:22:49;;;;;;;27.58;12.90;;;17.10;99.90;;;;;;5059165;28;20261;-72
2021/09/23 04:25:15;;;;;;;24.15;12.75;;;17.10;99.90;;;;;;5068460;28;20218;-73
2021/09/23 04:27:41;;;;;;;22.08;12.38;;;17.10;99.90;;;;;;5066186;28;20212;-70
2021/09/23 04:30:08;;;;;;;26.52;12.13;;;17.10;99.90;;;;;;5068126;28;20182;-71
2021/09/23 04:32:33;;;;;;;25.75;11.13;;;17.10;99.90;;;;;;5064014;28;20187;-72
2021/09/23 04:34:59;;;;;;;25.40;11.07;;;17.10;99.90;;;;;;5062642;28;20228;-71
2021/09/23 04:37:25;;;;;;;27.10;11.82;;;17.10;99.90;;;;;;5065911;28;20194;-71
2021/09/23 04:39:51;;;;;;;21.58;10.30;;;17.10;99.90;;;;;;5052205;28;20174;-72
2021/09/23 04:42:17;;;;;;;21.23;10.40;;;17.10;99.90;;;;;;5063462;28;20182;-70
2021/09/23 04:44:43;;;;;;;20.25;10.60;;;17.10;99.90;;;;;;5056677;28;20365;-70
2021/09/23 04:47:08;;;;;;;24.17;11.05;;;17.10;99.90;;;;;;5060443;28;20229;-70
2021/09/23 04:49:37;;;;;;;17.98;10.48;;;17.00;99.90;;;;;;5064443;28;20209;-72
2021/09/23 04:52:03;;;;;;;24.00;10.85;;;17.10;99.90;;;;;;5058501;28;20191;-70
2021/09/23 04:54:29;;;;;;;22.88;11.30;;;17.10;99.90;;;;;;5065784;28;20565;-71
2021/09/23 04:56:55;;;;;;;23.10;10.95;;;17.10;99.90;;;;;;5066121;28;20190;-70
2021/09/23 04:59:21;;;;;;;21.10;10.77;;;17.10;99.90;;;;;;5051832;28;20236;-72
2021/09/23 05:01:46;;;;;;;23.52;11.00;;;17.00;99.90;;;;;;5068072;28;20186;-71
2021/09/23 05:04:12;;;;;;;24.15;12.23;;;17.00;99.90;;;;;;5055769;28;20194;-70
2021/09/23 05:06:39;;;;;;;25.33;12.18;;;17.00;99.90;;;;;;5070629;28;20182;-72
2021/09/23 05:09:06;;;;;;;27.42;12.25;;;17.00;99.90;;;;;;5068035;28;20190;-71
2021/09/23 05:11:33;;;;;;;25.75;11.90;;;16.90;99.90;;;;;;5074140;28;20191;-72
2021/09/23 05:13:58;;;;;;;25.15;12.52;;;16.90;99.90;;;;;;5070671;28;20232;-70
2021/09/23 05:16:24;;;;;;;34.15;12.32;;;16.90;99.90;;;;;;5069367;28;20195;-72
2021/09/23 05:18:50;;;;;;;27.20;12.55;;;16.90;99.90;;;;;;5070340;28;20252;-73
2021/09/23 05:21:16;;;;;;;23.23;12.13;;;16.90;99.90;;;;;;5071188;28;20654;-73
2021/09/23 05:23:41;;;;;;;24.33;11.43;;;16.90;99.90;;;;;;5070213;28;20621;-73
2021/09/23 05:26:08;;;;;;;24.02;11.23;;;16.90;99.90;;;;;;5053670;28;20309;-73
2021/09/23 05:28:33;;;;;;;21.45;11.23;;;16.90;99.90;;;;;;5034266;28;20639;-73
2021/09/23 05:30:59;;;;;;;21.27;10.85;;;16.90;99.90;;;;;;5073259;28;20536;-74
2021/09/23 05:33:25;;;;;;;22.40;10.70;;;16.90;99.90;;;;;;5057091;28;20226;-74
2021/09/23 05:35:50;;;;;;;19.77;10.10;;;16.90;99.90;;;;;;5071805;28;20449;-73
2021/09/23 05:38:16;;;;;;;18.55;9.25;;;16.90;99.90;;;;;;5073405;28;20265;-73
2021/09/23 05:40:41;;;;;;;16.63;9.38;;;16.90;99.90;;;;;;5071561;28;20178;-71
2021/09/23 05:43:07;;;;;;;21.65;9.25;;;16.90;99.90;;;;;;5072163;28;20187;-72
2021/09/23 05:45:33;;;;;;;18.83;8.75;;;16.90;99.90;;;;;;5072632;28;20186;-71
2021/09/23 05:47:59;;;;;;;26.55;8.18;;;16.90;99.90;;;;;;5069196;28;20178;-73
2021/09/23 05:50:25;;;;;;;17.75;7.90;;;17.00;99.90;;;;;;5071480;28;20187;-71
2021/09/23 05:52:52;;;;;;;17.00;7.63;;;17.00;99.90;;;;;;5071959;28;20171;-73
2021/09/23 05:55:18;;;;;;;11.30;6.75;;;17.10;99.90;;;;;;5051416;28;20651;-72
2021/09/23 05:57:43;;;;;;;18.00;6.97;;;17.10;99.90;;;;;;5073092;28;20186;-72
2021/09/23 06:00:14;;;;;;;12.10;7.20;;;17.00;99.90;;;;;;5052162;28;20553;-73
2021/09/23 06:02:42;;;;;;;12.80;6.07;;;17.10;99.90;;;;;;5069661;28;20647;-71
2021/09/23 06:05:09;;;;;;;12.13;6.25;;;17.10;99.90;;;;;;5076852;28;20556;-71
2021/09/23 06:07:34;;;;;;;12.20;6.53;;;17.10;99.90;;;;;;5070390;28;20194;-72
2021/09/23 06:10:00;;;;;;;17.40;6.47;;;17.20;99.90;;;;;;5068731;28;20232;-71
2021/09/23 06:12:26;;;;;;;11.38;6.28;;;17.20;99.90;;;;;;5069390;28;20186;-71
2021/09/23 06:14:52;;;;;;;13.95;6.45;;;17.20;99.90;;;;;;5073113;28;20217;-71
2021/09/23 06:17:17;;;;;;;13.98;6.07;;;17.20;99.90;;;;;;5050139;28;20696;-72
2021/09/23 06:19:43;;;;;;;14.18;6.00;;;17.20;99.90;;;;;;5073065;28;20634;-72
2021/09/23 06:22:09;;;;;;;11.50;5.90;;;17.20;99.90;;;;;;5073483;28;20731;-72
2021/09/23 06:24:34;;;;;;;14.68;6.40;;;17.20;99.90;;;;;;5042751;28;20191;-71
2021/09/23 06:27:02;;;;;;;11.40;5.60;;;17.20;99.90;;;;;;5039970;28;21081;-71
2021/09/23 06:29:27;;;;;;;9.75;5.40;;;17.20;99.90;;;;;;5043443;28;20242;-74
2021/09/23 06:31:54;;;;;;;12.98;5.82;;;17.20;99.90;;;;;;5062469;28;20183;-73
2021/09/23 06:34:21;;;;;;;10.60;5.45;;;17.20;99.90;;;;;;5045194;28;20206;-74
2021/09/23 06:36:47;;;;;;;16.50;5.70;;;17.20;99.90;;;;;;5079004;28;20816;-74
2021/09/23 06:39:12;;;;;;;14.75;5.00;;;17.20;99.90;;;;;;5060320;28;20281;-74
2021/09/23 06:41:38;;;;;;;14.18;4.68;;;17.20;99.90;;;;;;5062800;28;20193;-74
2021/09/23 06:44:05;;;;;;;10.30;4.70;;;17.30;99.90;;;;;;5043974;28;20194;-72
2021/09/23 06:46:31;;;;;;;10.77;4.07;;;17.20;99.90;;;;;;5043213;28;20249;-71
2021/09/23 06:48:57;;;;;;;8.13;4.40;;;17.30;99.90;;;;;;5059889;28;20283;-71
2021/09/23 06:51:23;;;;;;;12.55;4.45;;;17.30;99.90;;;;;;5059366;28;20278;-71
2021/09/23 06:53:49;;;;;;;6.65;4.13;;;17.30;99.90;;;;;;5054289;28;20260;-72
2021/09/23 06:56:15;;;;;;;;;;;17.40;99.90;;;;;;5058794;28;20222;-71
2021/09/23 06:58:41;;;;;;;8.68;4.72;;;17.40;99.90;;;;;;5057954;28;20208;-71
2021/09/23 07:01:25;;;;;;;9.32;4.40;;;17.50;99.90;;;;;;5054137;28;20229;-71
2021/09/23 07:03:53;;;;;;;19.80;4.50;;;17.50;99.90;;;;;;5057022;28;20202;-69
2021/09/23 07:06:48;;;;;;;13.88;4.13;;;17.50;99.90;;;;;;5045543;28;20214;-71
2021/09/23 07:09:23;;;;;;;11.57;3.78;;;17.60;99.90;;;;;;5038863;28;20339;-70
2021/09/23 07:11:49;;;;;;;10.40;4.57;;;17.60;99.70;;;;;;5037392;28;20309;-70
2021/09/23 07:14:14;;;;;;;11.02;3.70;;;17.70;99.50;;;;;;5039702;28;20435;-71
2021/09/23 07:16:40;;;;;;;6.40;3.30;;;17.80;99.40;;;;;;5021079;28;20187;-71
2021/09/23 07:19:06;;;;;;;8.15;3.40;;;17.90;99.10;;;;;;5037040;28;20647;-71
2021/09/23 07:21:32;;;;;;;9.57;3.43;;;17.90;98.80;;;;;;5037143;28;20245;-72
2021/09/23 07:23:58;;;;;;;11.50;3.95;;;17.90;98.50;;;;;;5061387;28;20248;-71
2021/09/23 07:26:25;;;;;;;15.82;3.80;;;18.00;98.30;;;;;;5060607;28;20179;-71
2021/09/23 07:28:50;;;;;;;7.28;2.97;;;18.00;98.00;;;;;;5062165;28;20186;-70
2021/09/23 07:31:16;;;;;;;7.88;3.30;;;18.00;97.90;;;;;;5042568;28;20198;-71
2021/09/23 07:33:44;;;;;;;6.10;3.20;;;18.00;97.80;;;;;;5064294;28;20213;-71
2021/09/23 07:36:12;;;;;;;9.48;3.60;;;18.00;97.70;;;;;;5061917;28;20225;-71
2021/09/23 07:38:38;;;;;;;9.13;3.50;;;18.00;97.70;;;;;;5062422;28;20186;-71
2021/09/23 07:41:03;;;;;;;8.75;3.40;;;17.90;97.60;;;;;;5060809;28;20187;-71
2021/09/23 07:43:29;;;;;;;11.25;3.53;;;17.90;97.60;;;;;;5044679;28;20186;-71
2021/09/23 07:45:55;;;;;;;10.35;3.67;;;17.90;97.60;;;;;;5044296;28;20209;-69
2021/09/23 07:48:21;;;;;;;13.77;3.90;;;17.90;97.60;;;;;;5041608;28;20175;-72
2021/09/23 07:50:47;;;;;;;11.88;4.22;;;17.90;97.60;;;;;;5061073;28;20182;-72
2021/09/23 07:53:12;;;;;;;13.38;4.00;;;17.80;97.60;;;;;;5042985;28;20187;-71
2021/09/23 07:55:38;;;;;;;11.43;4.90;;;17.80;97.50;;;;;;5045374;28;20186;-71
2021/09/23 07:58:04;;;;;;;13.45;4.18;;;17.80;97.50;;;;;;5028035;28;20301;-72
2021/09/23 08:00:30;;;;;;;8.45;3.63;;;17.90;97.40;;;;;;5057438;28;20191;-71
2021/09/23 08:02:56;;;;;;;8.98;4.03;;;17.90;97.30;;;;;;5043665;28;20191;-72
2021/09/23 08:05:22;;;;;;;12.43;3.65;;;17.90;97.30;;;;;;5042975;28;20194;-71
2021/09/23 08:07:49;;;;;;;10.13;3.60;;;17.90;97.30;;;;;;5043184;28;20790;-71
2021/09/23 08:10:15;;;;;;;14.80;3.97;;;17.90;97.20;;;;;;5043613;28;20183;-72
2021/09/23 08:12:42;;;;;;;14.73;3.95;;;17.90;97.30;;;;;;5042845;28;20194;-73
2021/09/23 08:15:09;;;;;;;10.90;3.65;;;17.90;97.30;;;;;;5045212;28;20213;-70
2021/09/23 08:17:44;;;;;;;11.68;3.63;;;17.90;97.30;;;;;;5041327;28;20294;-70
2021/09/23 08:20:46;;;;;;;32.33;4.10;;;17.90;97.40;;;;;;5041015;28;20187;-69
2021/09/23 08:23:13;;;;;;;17.60;3.45;;;17.90;97.60;;;;;;5045178;28;20260;-70
2021/09/23 08:25:40;;;;;;;9.13;3.00;;;17.80;97.90;;;;;;5043104;28;20224;-71
2021/09/23 08:28:11;;;;;;;10.55;3.00;;;17.70;98.40;;;;;;5044818;28;20198;-71
2021/09/23 08:30:37;;;;;;;;;;;17.60;98.40;;;;;;5043794;28;20179;-72
2021/09/23 08:33:03;;;;;;;12.07;3.50;;;17.40;98.60;;;;;;5029994;28;19992;-72
2021/09/23 08:35:28;;;;;;;11.60;3.50;;;17.40;99.00;;;;;;5048044;28;20178;-72
2021/09/23 08:37:54;;;;;;;13.63;3.20;;;17.40;99.40;;;;;;5047099;28;20195;-72
2021/09/23 08:40:20;;;;;;;16.42;3.50;;;17.40;99.40;;;;;;5048113;28;20284;-72
2021/09/23 08:42:46;;;;;;;13.85;3.50;;;17.40;99.50;;;;;;5045955;28;20175;-71
2021/09/23 08:45:15;;;;;;;20.08;3.70;;;17.30;99.50;;;;;;5034666;28;20186;-72
2021/09/23 08:47:42;;;;;;;6.90;3.40;;;17.40;99.50;;;;;;5046606;28;20937;-73
2021/09/23 08:50:10;;;;;;;;;;;17.40;99.50;;;;;;5059356;28;20191;-71
2021/09/23 08:52:37;;;;;;;22.40;3.50;;;17.60;99.90;;;;;;5046757;28;20170;-71
2021/09/23 08:55:04;;;;;;;13.30;3.20;;;17.90;99.80;;;;;;5043584;28;20211;-72
2021/09/23 08:57:31;;;;;;;14.75;3.45;;;18.00;99.50;;;;;;5047840;28;20178;-72
2021/09/23 08:59:57;;;;;;;10.88;3.10;;;18.30;99.70;;;;;;5062835;28;20885;-73
2021/09/23 09:02:28;;;;;;;11.05;2.97;;;18.50;99.00;;;;;;5045964;28;20611;-74
2021/09/23 09:05:18;;;;;;;8.20;3.22;;;18.60;98.60;;;;;;5062718;28;20212;-71
2021/09/23 09:08:23;;;;;;;15.23;2.80;;;18.70;98.30;;;;;;5048402;28;20209;-71
2021/09/23 09:11:02;;;;;;;16.80;3.70;;;18.70;98.00;;;;;;5079601;28;20240;-71
2021/09/23 09:13:37;;;;;;;13.35;3.28;;;18.60;97.80;;;;;;5043082;28;20206;-72
2021/09/23 09:16:12;;;;;;;6.75;2.47;;;18.60;97.80;;;;;;5043594;28;20183;-72
2021/09/23 09:18:38;;;;;;;14.88;3.03;;;18.60;97.90;;;;;;5078929;28;20197;-73
2021/09/23 09:21:12;;;;;;;10.90;2.97;;;18.60;97.70;;;;;;5046457;28;20183;-73
2021/09/23 09:23:51;;;;;;;10.20;2.47;;;18.70;97.40;;;;;;5030125;28;20280;-73
2021/09/23 09:26:26;;;;;;;12.95;2.88;;;18.80;97.30;;;;;;5032406;28;20209;-72
2021/09/23 09:28:56;;;;;;;12.05;2.47;;;18.80;97.50;;;;;;5061957;28;20194;-75
2021/09/23 09:31:22;;;;;;;13.68;2.80;;;18.90;96.90;;;;;;5030626;28;20643;-73
2021/09/23 09:33:51;;;;;;;13.50;2.42;;;18.90;96.70;;;;;;5064393;28;20215;-74
2021/09/23 09:36:28;;;;;;;16.08;2.75;;;18.90;96.50;;;;;;5031767;28;20240;-74
2021/09/23 09:38:57;;;;;;;15.60;2.67;;;18.90;96.50;;;;;;5063575;28;20972;-73
2021/09/23 09:41:29;;;;;;;10.93;2.50;;;19.00;96.40;;;;;;5063998;28;20187;-73
2021/09/23 09:43:59;;;;;;;9.50;2.45;;;19.10;96.20;;;;;;5064549;28;21756;-73
2021/09/23 09:46:33;;;;;;;12.88;2.95;;;19.30;96.20;;;;;;5029937;28;20744;-73
2021/09/23 09:49:00;;;;;;;12.35;2.10;;;19.40;96.10;;;;;;5030021;28;20187;-74
2021/09/23 09:51:46;;;;;;;13.48;2.55;;;19.80;96.10;;;;;;5049170;28;20217;-73
2021/09/23 09:54:15;;;;;;;10.60;2.22;;;20.10;95.50;;;;;;5024572;28;20189;-72
2021/09/23 09:56:47;;;;;;;14.52;2.35;;;20.60;95.30;;;;;;5029992;28;20848;-72
2021/09/23 09:59:19;;;;;;;11.90;2.30;;;21.20;94.70;;;;;;5033621;28;20850;-71
2021/09/23 10:01:52;;;;;;;20.85;2.22;;;21.70;93.80;;;;;;5042993;28;20179;-74
2021/09/23 10:04:19;;;;;;;8.90;2.03;;;22.10;92.40;;;;;;5054864;28;20195;-71
2021/09/23 10:06:46;;;;;;;11.20;2.50;;;22.10;91.10;;;;;;5033473;28;20194;-73
2021/09/23 10:09:14;;;;;;;7.45;2.17;;;22.10;90.90;;;;;;5029760;28;20211;-73
2021/09/23 10:11:42;;;;;;;9.77;1.80;;;22.10;90.40;;;;;;5034787;28;20204;-74
2021/09/23 10:14:09;;;;;;;6.97;1.75;;;22.10;90.00;;;;;;5032616;28;20214;-71
2021/09/23 10:16:35;;;;;;;14.80;2.40;;;22.10;89.50;;;;;;5069732;28;20191;-74
2021/09/23 10:19:05;;;;;;;12.52;1.77;;;22.30;88.20;;;;;;5031140;28;20179;-73
2021/09/23 10:21:31;;;;;;;7.75;1.92;;;22.40;87.30;;;;;;5049649;28;20566;-72
2021/09/23 10:23:57;;;;;;;10.10;1.98;;;22.50;86.70;;;;;;5057904;28;20132;-72
2021/09/23 10:26:29;;;;;;;14.50;2.10;;;22.70;86.50;;;;;;5050504;28;20197;-72
2021/09/23 10:28:57;;;;;;;21.40;2.20;;;22.90;85.30;;;;;;5071937;28;20186;-70
2021/09/23 10:31:31;;;;;;;;;;;23.10;84.30;;;;;;5057301;28;20216;-71
2021/09/23 10:33:57;;;;;;;;;;;23.10;82.90;;;;;;5070962;28;20043;-70
2021/09/23 10:36:23;;;;;;;11.10;2.10;;;23.10;82.90;;;;;;5049028;28;20111;-72
2021/09/23 10:38:50;;;;;;;;;;;23.10;82.20;;;;;;5050115;28;19971;-72
2021/09/23 10:41:16;;;;;;;9.10;1.92;;;23.10;81.30;;;;;;5083885;28;20020;-72
2021/09/23 10:43:43;;;;;;;14.73;2.40;;;23.10;81.10;;;;;;5034164;28;20179;-73
2021/09/23 10:46:11;;;;;;;15.73;1.90;;;23.00;81.10;;;;;;5053672;28;20186;-73
2021/09/23 10:48:49;;;;;;;8.65;2.00;;;22.90;80.80;;;;;;5048712;28;20179;-70
2021/09/23 10:51:16;;;;;;;9.80;1.90;;;22.80;80.30;;;;;;5049133;28;20221;-72
2021/09/23 10:53:49;;;;;;;8.82;1.88;;;22.60;80.40;;;;;;5049588;28;20207;-71
2021/09/23 10:56:20;;;;;;;13.20;1.80;;;22.40;81.20;;;;;;5048414;28;20273;-72
2021/09/23 10:58:48;;;;;;;13.77;2.13;;;22.30;81.70;;;;;;5050146;28;20655;-73
2021/09/23 11:01:30;;;;;;;11.50;2.00;;;22.20;82.30;;;;;;5066394;28;20328;-71
2021/09/23 11:04:01;;;;;;;15.85;2.03;;;22.00;83.00;;;;;;5049608;28;20217;-72
2021/09/23 11:06:39;;;;;;;17.17;2.22;;;21.80;83.70;;;;;;5048567;28;20206;-72
2021/09/23 11:09:18;;;;;;;14.30;2.60;;;21.70;84.20;;;;;;5068787;28;20180;-70
2021/09/23 11:11:48;;;;;;;14.82;2.40;;;21.50;84.90;;;;;;5049043;28;20186;-74
2021/09/23 11:14:15;;;;;;;14.15;2.22;;;21.30;86.10;;;;;;5049031;28;20202;-73
2021/09/23 11:16:49;;;;;;;10.38;2.33;;;21.00;87.00;;;;;;5049657;28;20198;-74
2021/09/23 11:19:20;;;;;;;9.75;2.15;;;20.80;88.20;;;;;;5048235;28;21071;-73
2021/09/23 11:21:51;;;;;;;17.77;2.60;;;20.60;89.50;;;;;;5051670;28;20210;-72
2021/09/23 11:24:25;;;;;;;18.88;2.95;;;20.50;90.20;;;;;;5066157;28;20222;-73
2021/09/23 11:26:52;;;;;;;17.00;2.35;;;20.40;90.60;;;;;;5048558;28;20206;-73
2021/09/23 11:29:20;;;;;;;12.60;2.80;;;20.40;91.00;;;;;;5047735;28;20205;-73
2021/09/23 11:31:49;;;;;;;13.38;2.15;;;20.30;91.20;;;;;;5050032;28;20879;-72
2021/09/23 11:34:39;;;;;;;11.82;2.38;;;20.30;91.50;;;;;;5048537;28;20236;-73
2021/09/23 11:37:09;;;;;;;17.65;2.63;;;20.30;91.90;;;;;;5048186;28;20627;-73
2021/09/23 11:39:48;;;;;;;14.88;2.38;;;20.20;92.30;;;;;;5048501;28;20692;-73
2021/09/23 11:42:19;;;;;;;10.23;2.00;;;20.40;92.60;;;;;;5048375;28;20171;-73
2021/09/23 11:44:46;;;;;;;14.30;3.08;;;20.60;92.60;;;;;;5051671;28;20182;-73
2021/09/23 11:47:13;;;;;;;29.27;2.45;;;20.90;92.50;;;;;;5049158;28;20324;-73
2021/09/23 11:49:39;;;;;;;11.25;2.28;;;21.10;92.20;;;;;;5052223;28;20181;-73
2021/09/23 11:52:05;;;;;;;8.73;2.55;;;21.30;92.00;;;;;;5047787;28;20526;-73
2021/09/23 11:54:31;;;;;;;22.25;3.50;;;21.30;91.80;;;;;;5048364;28;20293;-72
2021/09/23 11:56:56;;;;;;;15.52;2.50;;;21.40;91.70;;;;;;5049229;28;20179;-73
2021/09/23 11:59:27;;;;;;;11.93;2.30;;;21.40;91.50;;;;;;5049675;28;20183;-73
2021/09/23 12:02:04;;;;;;;11.85;2.20;;;21.50;91.50;;;;;;5069504;28;20194;-73
2021/09/23 12:04:32;;;;;;;11.52;1.98;;;21.40;91.40;;;;;;5081478;28;20214;-73
2021/09/23 12:07:00;;;;;;;13.32;2.45;;;21.30;91.40;;;;;;5048565;28;20216;-74
2021/09/23 12:09:26;;;;;;;29.52;2.75;;;21.30;91.50;;;;;;5085782;28;20232;-73
2021/09/23 12:11:53;;;;;;;8.30;2.00;;;21.20;91.50;;;;;;5052074;28;20197;-72
2021/09/23 12:14:20;;;;;;;8.75;2.20;;;21.20;91.50;;;;;;5053357;28;20227;-73
2021/09/23 12:16:48;;;;;;;6.55;2.20;;;21.10;91.50;;;;;;5053712;28;20652;-73
2021/09/23 12:19:33;;;;;;;15.00;2.17;;;21.10;91.60;;;;;;5054005;28;20185;-72
2021/09/23 12:22:00;;;;;;;14.93;2.28;;;21.00;91.70;;;;;;5053206;28;20225;-74
2021/09/23 12:24:39;;;;;;;8.45;2.22;;;20.90;91.80;;;;;;5053162;28;20224;-73
2021/09/23 12:27:13;;;;;;;7.85;2.05;;;20.90;92.00;;;;;;5083479;28;20592;-75
2021/09/23 12:29:41;;;;;;;13.40;2.33;;;20.80;92.20;;;;;;5059402;28;20190;-72
2021/09/23 12:32:09;;;;;;;8.88;2.00;;;20.90;92.20;;;;;;5048058;28;20173;-72
2021/09/23 12:34:47;;;;;;;18.48;2.90;;;20.90;92.20;;;;;;5053305;28;20670;-74
2021/09/23 12:37:15;;;;;;;9.57;2.03;;;21.00;92.20;;;;;;5058102;28;20256;-73
2021/09/23 12:40:06;;;;;;;9.48;2.13;;;21.00;92.10;;;;;;5051687;28;20181;-75
2021/09/23 12:42:35;;;;;;;15.18;2.58;;;21.00;92.10;;;;;;5058308;28;20190;-74